x

8461490 - New London, Ct (nlnc3) Weather Station

12:30 - Sat 30th Jul 2016 All times are EDT. -4 hours from GMT.

  • Wind
    5mph, 6mph gusts
  • Sea Temp 74°f
  • Ar Temp 71°f
  • Sea Pressure 1013.4mb
  • 8461490 - New London, Ct
  • 8461490 - New London, Ct

More Historic Weather Station data

Upgrade to MSW Pro to gain access to the past 30 days of data for over 8000 Wavebouys and Weather Stations around the globe.

Join Pro

Comparision Forecast

View Surf forecast
   
Sáb 07/30 12:30 5 6 mph 1013.4mb 74f 71f
12:24 2 5 mph 1013.4mb 74f 72f
12:18 5 6 mph 1013.3mb 74f 72f
12:12 5 6 mph 1013.2mb 74f 72f
12:06 5
mph
1013.1mb 74f 72f
12:00 3
mph
1013.1mb 73f 72f
Sex 07/29 11:54 3 5 mph 1013.1mb 73f 72f
11:48 2 3 mph 1013.1mb 73f 72f
11:42 2 3 mph 1013.1mb 73f 72f
11:36 2 3 mph 1013.1mb 73f 72f
11:30  -  mph 1013.2mb - -
11:24  -  mph 1013.2mb - -
11:18 3 5 mph - 71f -
11:12 2 3 mph - 71f -
11:06 1 2 mph - 71f -
11:00  -  mph 1013mb 72f -
10:54  -  mph 1013.1mb 73f -
10:48 2
mph
1013mb 73f -
10:42 2
mph
1012.9mb 72f -
10:36 1
mph
1012.8mb 72f -
10:30 1 2 mph 1012.8mb 72f -
10:24 1 2 mph 1012.7mb 74f -
10:18  -  2 mph 1012.6mb 74f -
10:12 1 2 mph 1012.7mb 74f -
10:06 1 2 mph 1012.8mb 74f -
10:00  -  3 mph 1012.8mb 74f 74f
9:54 2 3 mph 1012.8mb 74f 74f
9:48 2 3 mph 1012.9mb 74f -
9:42 2
mph
1012.7mb 74f -
9:36  -  2 mph 1012.6mb 74f -
9:30 2 3 mph 1012.6mb 74f -
9:24 1 5 mph 1012.6mb 74f -
9:18 2
mph
- 74f -
9:12 2 3 mph - 74f -
9:06 3 5 mph - 74f -
9:00  -  mph 1012.5mb 74f -
8:54  -  mph 1012.3mb 74f -
8:48 5 6 mph 1012.3mb 74f -
8:42 6
mph
1012.2mb 74f -
8:36 5 7 mph 1012.3mb 74f -
8:30 5 7 mph 1012.2mb 74f -
8:24 6 7 mph 1012mb 74f -
8:18 6
mph
- 74f 73f
8:12 5 6 mph - 74f 73f
8:06 5 6 mph - 73f 73f
8:00  -  mph - 73f -
7:54  -  mph - 72f -
7:48  -  mph - 71f -
7:42  -  mph - 71f -
7:36  -  mph - 71f -
7:30  -  mph - 71f -
7:24  -  mph - 72f -
7:18  -  mph - 72f -
7:12  -  mph - 72f -
7:06  -  mph - 72f -
7:00  -  mph - 72f -
6:54  -  mph - 71f -
6:48  -  mph - 71f -
6:42  -  mph - 71f -
6:36  -  mph - 71f -
6:30  -  mph - 71f -
6:24  -  mph - 71f -
6:18  -  mph 1010.6mb 71f -
6:12  -  mph 1010.5mb 71f -
6:06  -  mph 1010.4mb 72f -
6:00  -  mph 1010.4mb 72f 75f
5:54  -  mph 1010.3mb 72f 75f
5:48 13 15 mph 1010.1mb 72f 76f
5:42 1 3 mph 1009.9mb 72f 83f
5:36 2 3 mph 1009.8mb 72f 83f
5:30 1 2 mph 1009.8mb 72f 83f
5:24 1 2 mph 1009.8mb 72f 82f
5:18 3 5 mph 1009.8mb 72f 82f
5:12 2 7 mph 1009.7mb 72f 82f
5:06 3 6 mph 1009.7mb 72f 82f
5:00 3 10 mph 1009.6mb 72f 82f
4:54 6 10 mph 1009.5mb 72f 82f
4:48 3 6 mph 1009.4mb 71f 82f
4:42 3 7 mph 1009.5mb 71f 82f
4:36 3 8 mph 1009.4mb 71f 82f
4:30 5 10 mph 1009.4mb 72f 82f
4:24 3 9 mph 1009.4mb 71f 82f
4:18 6 8 mph 1009.3mb 71f 82f
4:12 3 8 mph 1009.2mb 71f 82f
4:06 5 8 mph 1009.1mb 71f 82f
4:00 6 8 mph 1009.1mb 71f 81f
3:54 3 7 mph 1009.1mb 71f 81f
3:48 6 10 mph 1009.1mb 71f 81f
3:42 5 9 mph 1009.1mb 71f 81f
3:36 6 8 mph 1009.2mb 71f 81f
3:30 3 5 mph 1009.2mb 70f 81f
3:24 5 7 mph 1009.3mb 70f 80f
3:18 5 8 mph 1009.3mb 70f 80f
3:12 5 7 mph 1009.4mb 70f 80f
3:06 5 9 mph 1009.4mb 70f 80f
3:00 3 6 mph 1009.4mb 69f 80f
2:54 5 11 mph 1009.4mb 69f 80f
2:48 3 8 mph 1009.5mb 69f 79f
2:42 5 8 mph 1009.5mb 69f 79f
2:36 3 7 mph 1009.5mb 70f 79f
2:30 5 8 mph 1009.6mb 70f 78f
2:24 5 7 mph 1009.6mb 70f 78f
2:18 5 7 mph 1009.6mb 71f 78f
2:12 3 6 mph 1009.7mb 72f 77f
2:06 6 8 mph 1009.9mb 73f 77f
2:00 2 7 mph 1009.9mb 73f 77f
1:54 3 6 mph 1009.9mb 73f 76f
1:48 2 6 mph 1009.8mb 73f 76f
1:42 3 7 mph 1009.9mb 72f 76f
1:36 3 6 mph 1010mb 72f 76f
1:30 3 7 mph 1010mb 74f 75f
1:24 5 7 mph 1010mb 75f 74f
1:18 3 5 mph 1010mb 75f 74f
1:12 3 6 mph 1010.2mb 75f 74f
1:06 3 6 mph 1010.4mb 74f 74f
1:00 3 5 mph 1010.5mb 75f 74f
12:54 2 3 mph 1010.6mb 75f 73f
12:48 2 5 mph 1010.6mb 75f 73f
12:42 2 5 mph 1010.7mb 74f 73f
12:36 2 6 mph 1010.7mb 75f 73f
12:30 2 6 mph 1010.8mb 75f 73f
12:24 3 6 mph 1010.8mb 75f 73f
12:18 5 6 mph 1010.9mb 74f 73f
12:12 3 5 mph 1011.1mb 74f 73f
12:06 3 5 mph 1011.1mb 75f 72f
12:00 3
mph
1011.2mb 74f 72f
11:54 3 6 mph 1011.2mb 75f 72f
11:48 5 6 mph 1011.2mb 75f 72f
11:42 3 6 mph 1011.3mb 75f 72f
11:36 3 7 mph 1011.3mb 75f 71f
11:30 5 6 mph 1011.3mb 75f 71f
11:24 2 6 mph 1011.4mb 75f 71f
11:18 3 6 mph 1011.3mb 75f 71f
11:12 3 6 mph 1011.2mb 75f 71f
11:06 5 7 mph 1011.2mb 75f 71f
11:00 3 6 mph 1011.3mb 75f 71f
10:54 3 6 mph 1011.4mb 74f 71f
10:48 5 6 mph 1011.4mb 74f 71f
10:42 2 5 mph 1011.5mb 74f 71f
10:36 2 6 mph 1011.4mb 74f 70f
10:30 3 7 mph 1011.5mb 74f 70f
10:24 5 8 mph 1011.4mb 75f 70f
10:18 6 13 mph 1011.4mb 75f 70f
10:12 3 10 mph 1011.4mb 75f 70f
10:06 7 13 mph 1011.4mb 75f 70f
10:00 7 15 mph 1011.3mb 75f 70f
9:54 8 14 mph 1011.2mb 74f 71f
9:48 6 8 mph 1011.1mb 74f 70f
9:42 7 9 mph 1011mb 74f 71f
9:36 7 11 mph 1011mb 74f 71f
9:30 3 8 mph 1010.9mb 74f 71f
9:24 3 7 mph 1010.8mb 73f 71f
9:18 3 7 mph 1010.6mb 73f 72f
9:12 3 10 mph 1010.5mb 73f 72f
9:06 5 7 mph 1010.4mb 74f 72f
9:00 3 9 mph 1010.5mb 75f 72f
8:54 5 13 mph 1010.6mb 75f 72f
8:48 7 11 mph 1010.7mb 75f 71f
8:42 6 11 mph 1010.7mb 75f 71f
8:36 9 10 mph 1010.8mb 74f 71f
8:30 7 10 mph 1010.8mb 75f 71f
8:24 8 10 mph 1010.7mb 74f 71f
8:18 7 9 mph 1010.6mb 74f 71f
8:12 6 10 mph 1010.5mb 74f 72f
8:06 6 9 mph 1010.4mb 75f 72f
8:00 6 9 mph 1010.4mb 74f 72f
7:54 3 7 mph 1010.3mb 74f 72f
7:48 3 7 mph 1010.3mb 74f 72f
7:42 6 10 mph 1010.2mb 74f 72f
7:36 7 11 mph 1010.2mb 73f 73f
7:30 8 13 mph 1010mb 73f 73f
7:24 8 11 mph 1010mb 73f 73f
7:18 5 9 mph 1010.2mb 73f 73f
7:12 6 9 mph 1010.3mb 73f 73f
7:06 7 11 mph 1010.3mb 73f 73f
7:00 6 10 mph 1010.6mb 73f 73f
6:54 6 9 mph 1010.7mb 73f 73f
6:48 6 8 mph 1010.7mb 73f 73f
6:42 5 7 mph 1010.8mb 73f 73f
6:36 2 6 mph 1010.9mb 73f 73f
6:30 2 6 mph 1010.8mb 73f 73f
6:24 2 7 mph 1010.7mb 73f 73f
6:18 6 9 mph 1010.7mb 73f 73f
6:12 5 10 mph 1010.6mb 73f 74f
6:06 5 8 mph 1010.7mb 73f 74f
6:00 5 9 mph 1010.8mb 73f 74f
5:54 7 11 mph 1010.7mb 73f 74f
5:48 7 14 mph 1010.6mb 73f 74f
5:42 6 10 mph 1010.5mb 73f 74f
5:36 5 7 mph 1010.4mb 73f 74f
5:30 5 10 mph 1010.1mb 73f 74f
5:24 5 9 mph 1010mb 73f 74f
5:18 6 7 mph 1010.3mb 73f 74f
5:12 3
mph
1010.7mb 74f 74f
5:06 2 5 mph 1010.9mb 74f 74f
5:00 6
mph
1010.9mb 74f 74f
4:54 5 7 mph 1010.9mb 74f 73f
4:48 5 6 mph 1010.9mb 74f 73f
4:42 1 2 mph 1010.9mb 74f 74f
4:36 1 2 mph 1010.9mb 74f 75f
4:30 1 2 mph 1010.9mb 74f 75f
4:24 1 2 mph 1010.8mb 74f 75f
4:18 2 5 mph 1010.5mb 74f 75f
4:12 2 3 mph 1010.4mb 73f 75f
4:06 1 2 mph 1010.3mb 73f 75f
4:00 1 3 mph 1010.3mb 73f 75f
3:54 2 3 mph 1010.4mb 73f 75f
3:48 2
mph
1010.4mb 73f 75f
3:42 1
mph
1010.3mb 74f 75f
3:36 2 3 mph 1010.2mb 74f 75f
3:30 2
mph
1010.3mb 73f 75f
3:24 1 2 mph 1010.4mb 74f 75f
3:18 1 3 mph 1010.4mb 74f 74f
3:12 2 3 mph 1010.5mb 74f 74f
3:06  -  2 mph 1010.7mb 74f 74f
3:00  -  mph 1010.9mb 74f 74f
2:54  -  mph 1010.9mb 74f 74f
2:48  -  mph 1010.9mb 74f -
2:42  -  1 mph 1010.9mb 74f -
2:36 1 2 mph 1011mb 74f -
2:30 1 2 mph 1011.1mb 73f 74f
2:24 1 3 mph 1011.1mb 74f 74f
2:18 3 5 mph 1011.2mb 74f 74f
2:12 3
mph
1011.2mb 74f 74f
2:06 2 5 mph 1011.1mb 74f 74f
2:00 3 5 mph 1011.1mb 74f 74f
1:54 5 8 mph 1011.2mb 75f 74f
1:48 7 8 mph 1011.5mb 75f -
1:42 7 9 mph 1011.5mb 75f -
1:36 8 9 mph 1011.5mb 75f -
1:30 7 8 mph 1011.5mb 75f 75f
1:24 5
mph
1011.4mb 75f 75f
1:18 3
mph
1011.4mb 75f 75f
1:12 2
mph
1011.4mb 75f 75f
1:06 1
mph
1011.3mb 75f 75f
1:00  -  1 mph 1011.4mb 75f 75f
12:54  -  1 mph 1011.6mb 75f 75f
12:48  -  1 mph 1011.6mb 75f 75f
12:42 2
mph
1011.5mb 75f 75f
12:36 2
mph
1011.5mb 75f 75f
12:30 1 2 mph 1011.5mb 75f 75f
12:24 2
mph
1011.5mb 75f 75f
12:18 2 3 mph 1011.5mb 74f 75f
12:12 2 3 mph 1011.5mb 75f 75f
12:06 3
mph
1011.6mb 75f 75f
12:00 2 3 mph 1011.6mb 75f 75f
Qui 07/28 11:54 2 5 mph 1011.4mb 75f 75f
11:48 5
mph
1011.6mb 75f 76f
11:42 3 5 mph 1011.8mb 75f 76f
11:36 3 6 mph 1011.8mb 74f 76f
11:30 5 6 mph 1011.8mb 74f 76f
11:24 5
mph
1011.8mb 74f 76f
11:18  -  mph 1011.7mb 74f -
11:12  -  mph 1011.6mb 74f -
11:06  -  mph 1011.7mb 74f -
11:00 3 5 mph - 75f -
10:54 3 5 mph - 75f -
10:48 3 5 mph 1011.8mb 75f -
10:42 3 5 mph 1011.8mb 75f -
10:36 3 5 mph 1011.9mb 74f -
10:30 3 6 mph - - -
10:24 5 6 mph - - -
10:18  -  mph - 73f 76f
10:12  -  mph - 73f 76f
10:06  -  mph - 73f 76f
10:00  -  mph 1011.8mb - -
9:54  -  mph 1011.8mb - -
9:48 6 7 mph 1011.6mb 73f -
9:42 5 6 mph 1011.7mb 73f -
9:36 5 6 mph 1011.7mb 74f -
9:30 5 6 mph 1011.6mb - -
9:24 5
mph
1011.5mb - -
9:18 3 5 mph - 75f -
9:12 5
mph
- 74f -
9:06 3 6 mph - 74f -
9:00  -  mph - 74f 77f
8:54  -  mph - 74f 77f
8:48 5 7 mph 1011.4mb 74f -
8:42 6 7 mph 1011.3mb 74f -
8:36 5 6 mph 1011.4mb 74f -
8:30 5 6 mph 1011.4mb 73f -
8:24 6
mph
1011.4mb 73f -
8:18 6 7 mph 1011.4mb 74f -
8:12 6 7 mph 1011.5mb 73f -
8:06 5 6 mph 1011.5mb 74f -
8:00  -  mph - 73f 78f
7:54  -  mph - 74f 78f
7:48 5 6 mph 1011.5mb - -
7:42 6 8 mph 1011.5mb - -
7:36 7 8 mph 1011.7mb - -
7:30 6 8 mph - - -
7:24 6 8 mph - - -
7:18 7 11 mph - 73f -
7:12 6 9 mph - 73f -
7:06 8 9 mph - 74f -
7:00  -  mph - 71f -
6:54  -  mph - 73f -
6:48  -  mph - 75f -
6:42  -  mph - 75f -
6:36  -  mph - 75f -
6:30 9 14 mph 1011.6mb 75f -
6:24 8 10 mph 1011.6mb 75f -
6:18 8 10 mph 1011.6mb 75f 77f
6:12 9 10 mph 1011.5mb 74f 78f
6:06 7 9 mph 1011.4mb 73f 77f
6:00 9 10 mph 1011.3mb 73f -
5:54 9 10 mph 1011.4mb 72f -
5:48 9 13 mph - 72f 76f
5:42 10 13 mph - 71f 77f
5:36 10 13 mph - 72f 77f
5:30 10 11 mph 1011.3mb 72f 77f
5:24 10 11 mph 1011.3mb 71f 76f
5:18 10 13 mph 1011.3mb 72f 76f
5:12 11 14 mph 1011.3mb 71f 75f
5:06 11 14 mph 1011.2mb 71f 76f
5:00 11 14 mph 1011.2mb 72f 76f
4:54 13 14 mph 1011.2mb 71f 76f
4:48 10 13 mph 1011.2mb 71f 76f
4:42 11 14 mph 1011.3mb 71f 76f
4:36 13 15 mph 1011.4mb 71f 75f
4:30 11 15 mph 1011.5mb 72f 75f
4:24 13 15 mph 1011.5mb 72f 75f
4:18 14 16 mph 1011.3mb 72f 75f
4:12 13 16 mph 1011.4mb 72f 76f
4:06 11 14 mph 1011.3mb 74f 75f
4:00 13 14 mph 1011.3mb 74f 75f
3:54 11 14 mph 1011.2mb 74f 76f
3:48 10 14 mph 1011.3mb 74f 75f
3:42 10 13 mph 1011.3mb 75f 75f
3:36 10 14 mph 1011.3mb 75f 75f
3:30 11 14 mph 1011.3mb 75f 76f
3:24 11 16 mph 1011.3mb 76f 76f
3:18 14 16 mph 1011.4mb 76f 76f
3:12 13 14 mph 1011.4mb 76f 76f
3:06 13 15 mph 1011.4mb 76f 76f
3:00 14 16 mph 1011.4mb 75f 77f
2:54 14 15 mph 1011.4mb 75f 76f
2:48 13 15 mph 1011.5mb 74f 76f
2:42 13 15 mph 1011.6mb 73f 76f
2:36 14 15 mph 1011.7mb 71f 76f
2:30 13 14 mph 1011.7mb 70f 76f
2:24 11 15 mph 1011.9mb 70f 77f
2:18 13 14 mph 1011.9mb 70f 76f
2:12 13 14 mph 1012.1mb 71f 76f
2:06 14 16 mph 1012.1mb 71f 76f
2:00 13 15 mph 1012.2mb 70f 76f
1:54 14 15 mph 1012.2mb 70f 76f
1:48 11 14 mph 1012.3mb 70f 76f
1:42 13 15 mph 1012.3mb 69f 76f
1:36 13 15 mph 1012.4mb 70f 76f
1:30 14 16 mph 1012.4mb 73f 76f
1:24 14 15 mph 1012.4mb 75f 77f
1:18 13 14 mph 1012.4mb 74f 77f
1:12 11 14 mph 1012.4mb 73f 77f
1:06 13 14 mph 1012.4mb 73f 77f
1:00 10 13 mph 1012.4mb 74f 78f
12:54 11 13 mph 1012.4mb 74f 76f
12:48 13 14 mph 1012.4mb 74f 76f
12:42 11 14 mph 1012.5mb 74f 76f
12:36 11 13 mph 1012.5mb 74f 76f
12:30 10 13 mph 1012.6mb 73f 76f
12:24 10 11 mph 1012.7mb 73f 76f
12:18 11 13 mph 1012.7mb 73f 76f
12:12 11 13 mph 1012.7mb 74f 76f
12:06 11 13 mph 1012.8mb 74f 76f
12:00 10 13 mph 1013mb 74f 75f
11:54 11 13 mph 1013mb 74f 75f
11:48 10 13 mph 1012.9mb 74f 75f
11:42 10 13 mph 1012.9mb 74f 75f
11:36 11 14 mph 1012.9mb 74f 76f
11:30 13 14 mph 1012.9mb 74f 76f
11:24 11 14 mph 1012.9mb 74f 76f
11:18 10 13 mph 1012.9mb 74f 76f
11:12 10 13 mph 1013mb 74f 76f
11:06 10 13 mph 1013.1mb 74f 77f
11:00 11 13 mph 1013.1mb 74f 77f
10:54 13 14 mph 1013.2mb 74f 77f
10:48 9 11 mph 1013.2mb 74f 77f
10:42 8 10 mph 1013.2mb 74f 78f
10:36 9 10 mph 1013.2mb 74f 77f
10:30 8 9 mph 1013.2mb 74f 78f
10:24 8 9 mph 1013.2mb 74f 77f
10:18 8 10 mph 1013.3mb 74f 77f
10:12 8 9 mph 1013.2mb 74f 77f
10:06 8
mph
1013.2mb 73f 77f
10:00 7 8 mph 1013.1mb 73f 76f
9:54 7 8 mph 1013.2mb 73f 75f
9:48 7 8 mph 1013.3mb 71f 75f
9:42 7 8 mph 1013.3mb 71f 75f
9:36 7
mph
1013.3mb 71f 75f
9:30 7 8 mph 1013.3mb 72f 74f
9:24 6 9 mph 1013.4mb 72f 74f
9:18 9
mph
1013.4mb 73f 74f
9:12 7 8 mph 1013.4mb 73f 74f
9:06 7 8 mph 1013.4mb 73f 74f
9:00 6 8 mph 1013.4mb 73f 74f
8:54 7 8 mph 1013.5mb 73f 73f
8:48 8 9 mph 1013.4mb 73f 73f
8:42 7 9 mph 1013.5mb 73f 72f
8:36 8 10 mph 1013.4mb 73f 72f
8:30 9 11 mph 1013.4mb 73f 72f
8:24 9 10 mph 1013.4mb 73f 72f
8:18 8 9 mph 1013.3mb 73f 73f
8:12 7
mph
1013.3mb 73f 74f
8:06 3
mph
1013.2mb 73f 75f
8:00 2
mph
1013.1mb 74f 76f
7:54  -  1 mph 1013.1mb 74f 75f
7:48  -  1 mph 1013.1mb 74f 74f
7:42  -  1 mph 1013.1mb 74f 74f
7:36  -  2 mph 1013.1mb 74f 76f
7:30  -  2 mph 1013mb 74f 74f
7:24 1 3 mph 1013mb 74f 73f
7:18 3
mph
1013mb 74f 72f
7:12 3
mph
1012.9mb 74f 72f
7:06 3 5 mph 1012.9mb 74f 72f
7:00 2 5 mph 1012.9mb 74f 72f
6:54 3
mph
1012.8mb 74f 72f
6:48 3 5 mph 1012.8mb 73f 71f
6:42 3 5 mph 1012.9mb 73f 71f
6:36 3 5 mph 1012.9mb 73f 71f
6:30 3
mph
1012.9mb 73f 71f
6:24 2 5 mph 1012.8mb 72f 71f
6:18 2 3 mph 1012.9mb 73f 71f
6:12 2
mph
1012.9mb 73f 71f
6:06 2 3 mph 1012.9mb 73f 70f
6:00 1 2 mph 1012.9mb 73f 70f
5:54 2
mph
1012.9mb 73f 70f
5:48 2
mph
1012.9mb 73f 70f
5:42 2 3 mph 1012.8mb 73f 70f
5:36 2 3 mph 1012.7mb 73f 70f
5:30 2
mph
1012.6mb 73f 70f
5:24 2
mph
1012.6mb 73f 70f
5:18  -  1 mph 1012.6mb 73f 70f
5:12  -  2 mph 1012.6mb 72f 71f
5:06 2
mph
1012.5mb 72f 71f
5:00  -  1 mph 1012.5mb 72f 71f
4:54  -  mph 1012.5mb 72f 71f
4:48  -  1 mph 1012.5mb 72f 71f
4:42 1 2 mph 1012.5mb 72f 71f
4:36 2 3 mph 1012.4mb 72f 71f
4:30 1 2 mph 1012.4mb 72f 71f
4:24 2 3 mph 1012.4mb 72f 71f
4:18 2 3 mph 1012.3mb 72f 71f
4:12 2 3 mph 1012.3mb 72f 71f
4:06 2 3 mph 1012.3mb 72f 71f
4:00 3 5 mph 1012.3mb 72f 72f
3:54 3
mph
1012.4mb 73f 72f
3:48 1 2 mph 1012.3mb 73f 72f
3:42  -  2 mph 1012.4mb 73f 72f
3:36 1 2 mph 1012.4mb 73f 72f
3:30 1 2 mph 1012.4mb 73f 73f
3:24 1 2 mph 1012.4mb 73f 73f
3:18  -  2 mph 1012.4mb 73f 73f
3:12  -  2 mph 1012.4mb 73f 73f
3:06 1 2 mph 1012.5mb 73f 73f
3:00 1 2 mph 1012.5mb 72f 73f
2:54  -  2 mph 1012.6mb 71f 73f
2:48  -  1 mph 1012.5mb 71f -
2:42  -  2 mph 1012.4mb 72f -
2:36  -  1 mph 1012.5mb 72f -
2:30  -  1 mph 1012.5mb 73f 74f
2:24 1
mph
1012.5mb 72f 74f
2:18 1 2 mph 1012.5mb 71f 74f
2:12  -  2 mph 1012.6mb 71f 74f
2:06 1 2 mph 1012.6mb 71f 74f
2:00 2
mph
1012.6mb 71f 74f
1:54 2 3 mph 1012.6mb 73f 74f
1:48 3
mph
1012.6mb 73f -
1:42 3 5 mph 1012.6mb 73f -
1:36 3 5 mph 1012.7mb 73f -
1:30 2 3 mph 1012.6mb 73f 74f
1:24 2 3 mph 1012.5mb 72f 74f
1:18 2 3 mph 1012.5mb 71f 75f
1:12 3
mph
1012.5mb 71f 75f
1:06 2 3 mph 1012.6mb 71f 75f
1:00 1 5 mph 1012.6mb 72f 75f
12:54 2 5 mph 1012.7mb 73f 75f
12:48 2 5 mph 1012.6mb 74f 75f
12:42 2 5 mph 1012.7mb 74f 75f
12:36 2 5 mph 1012.7mb 74f 75f
12:30 2 5 mph 1012.6mb 74f 75f
12:24 2 5 mph 1012.6mb 74f 75f
12:18 5 6 mph 1012.7mb 74f 75f
12:12 2 5 mph 1012.7mb 74f 75f
12:06 5 6 mph 1012.8mb 74f 75f
12:00 3 6 mph 1012.7mb 74f 75f
Qua 07/27 11:54 2 5 mph 1012.7mb 74f 75f
11:48 2 5 mph 1012.7mb 74f 76f
11:42 2 6 mph 1012.7mb 74f 76f
11:36 2 5 mph 1012.8mb 74f 76f
11:30 5 6 mph 1012.9mb 74f 76f
11:24 3 5 mph 1012.9mb 74f 76f
11:18 2 6 mph - 74f -
11:12 2 5 mph - 74f -
11:06 5 7 mph - 74f -
11:00 3 6 mph 1013mb 74f -
10:54 5 7 mph 1013mb 74f -
10:48 3 6 mph - - -
10:42 2 5 mph - - -
10:36 2 5 mph - - -
10:30 3 6 mph - - -
10:24 3 6 mph - - -
10:18 3 7 mph - 74f -
10:12 3 6 mph - 74f -
10:06 2 5 mph - 74f -
10:00  -  mph - 74f -
9:54  -  mph - 74f -
9:48 6 7 mph - - -
9:42 6 7 mph - - -
9:36 5 6 mph - - -
9:30  -  mph 1013.1mb - -
9:24  -  mph 1013mb - -
9:18 6 8 mph - - -
9:12 5 7 mph - - -
9:06 6 7 mph - - -
9:00  -  mph - 72f -
8:54  -  mph - 73f -
8:48 6 7 mph 1012.4mb - -
8:42 5 8 mph 1012.3mb - -
8:36 6 8 mph 1012.2mb - -
8:30  -  mph 1012.2mb 74f -
8:24  -  mph 1012.2mb 74f -
8:18  -  mph - 74f 78f
8:12  -  mph - 74f 78f
8:06  -  mph - 74f 78f
8:00  -  mph - 74f 79f
7:54  -  mph - 73f 78f
7:48  -  mph 1012.1mb - -
7:42  -  mph 1012.2mb - -
7:36  -  mph 1012.2mb - -
7:30 7 9 mph - 74f -
7:24 7 9 mph - 74f -
7:18  -  mph - 74f 78f
7:12  -  mph - 74f 80f
7:06  -  mph - 74f 81f
7:00  -  mph - 74f 82f
6:54  -  mph - 74f 82f
6:48  -  mph - 74f 82f
6:42  -  mph - 74f 79f
6:36  -  mph - 74f 78f
6:30 8 13 mph - - -
6:24 9 14 mph - - -
6:18 11 15 mph 1012.2mb 73f 82f
6:12 9 15 mph 1012.1mb 73f 82f
6:06 9 11 mph 1012.1mb 73f 78f
6:00  -  mph - 72f -
5:54  -  mph - 72f -
5:48 8 13 mph - 71f 79f
5:42 9 13 mph - 73f 79f
5:36 10 14 mph - 73f 78f
5:30 10 13 mph 1012.4mb 71f 78f
5:24 10 15 mph 1012.4mb 72f 78f
5:18 11 14 mph 1012.4mb 72f 78f
5:12 10 13 mph 1012.4mb 71f 79f
5:06 10 13 mph 1012.4mb 71f 79f
5:00 10 13 mph 1012.4mb 71f 79f
4:54 10 15 mph 1012.4mb 71f 80f
4:48 14 16 mph 1012.5mb 70f 83f
4:42 14 15 mph 1012.5mb 70f 83f
4:36 10 17 mph 1012.5mb 71f 84f
4:30 10 14 mph 1012.5mb 70f 84f
4:24 9 15 mph 1012.6mb 70f 82f
4:18 13 14 mph 1012.6mb 70f 79f
4:12 10 14 mph 1012.7mb 70f 78f
4:06 13 14 mph 1012.7mb 73f 77f
4:00 9 14 mph 1012.7mb 71f 78f
3:54 14 15 mph 1012.7mb 72f 77f
3:48 14 16 mph 1012.7mb 70f 77f
3:42 15 17 mph 1012.7mb 70f 77f
3:36 14 16 mph 1012.8mb 72f 78f
3:30 14 15 mph 1012.8mb 69f 77f
3:24 13 15 mph 1012.8mb 70f 78f
3:18 14 16 mph 1012.8mb 70f 78f
3:12 13 15 mph 1012.9mb 71f 78f
3:06 13 15 mph 1012.9mb 70f 79f
3:00 13 14 mph 1012.9mb 71f 79f
2:54 13 16 mph 1012.9mb 73f 79f
2:48 15 16 mph 1013mb 72f 79f
2:42 15 16 mph 1013mb 72f 79f
2:36 13 15 mph 1013.1mb 73f 79f
2:30 15 17 mph 1013.1mb 73f 79f
2:24 14 16 mph 1013.1mb 72f 79f
2:18 14 16 mph 1013.1mb 71f 79f
2:12 13 17 mph 1013.1mb 71f 80f
2:06 13 17 mph 1013.2mb 71f 85f
2:00 9 15 mph 1013.2mb 71f 81f
1:54 11 16 mph 1013.2mb 71f 86f
1:48 9 17 mph 1013.2mb 70f 87f
1:42 9 18 mph 1013.3mb 69f 86f
1:36 10 15 mph 1013.4mb 71f 85f
1:30 8 15 mph 1013.4mb 70f 86f
1:24 10 16 mph 1013.5mb 70f 84f
1:18 9 13 mph 1013.5mb 69f 84f
1:12 11 13 mph 1013.5mb 69f 79f
1:06 11 15 mph 1013.5mb 69f 79f
1:00 11 14 mph 1013.6mb 69f 79f
12:54 13 14 mph 1013.5mb 69f 79f
12:48 13 14 mph 1013.6mb 69f 79f
12:42 10 13 mph 1013.7mb 69f 79f
12:36 11 13 mph 1013.7mb 69f 79f
12:30 11 14 mph 1013.6mb 69f 79f
12:24 11 14 mph 1013.6mb 69f 79f
12:18 11 14 mph 1013.6mb 70f 79f
12:12 13 14 mph 1013.6mb 70f 79f
12:06 11 14 mph 1013.6mb 71f 80f
12:00 11 15 mph 1013.6mb 71f 80f
11:54 13 15 mph 1013.6mb 70f 79f
11:48 13 14 mph 1013.6mb 71f 80f
11:42 11 13 mph 1013.7mb 72f 80f
11:36 11 13 mph 1013.7mb 71f 79f
11:30 11 13 mph 1013.7mb 70f 78f
11:24 11 13 mph 1013.7mb 72f 79f
11:18 11 13 mph 1013.6mb 73f 79f
11:12 11 13 mph 1013.6mb 73f 79f
11:06 9 13 mph 1013.7mb 73f 79f
11:00 10 11 mph 1013.6mb 73f 80f
10:54 10 13 mph 1013.7mb 73f 80f
10:48 9 10 mph 1013.7mb 74f 78f
10:42 8 9 mph 1013.7mb 73f 79f
10:36 6 7 mph 1013.7mb 73f 82f
10:30 5 6 mph 1013.6mb 73f 82f
10:24 2 3 mph 1013.7mb 73f 80f
10:18 3 7 mph 1013.7mb 73f 80f
10:12 2 3 mph 1013.7mb 73f 80f
10:06 3 5 mph 1013.7mb 73f 80f
10:00 2 3 mph 1013.7mb 73f 80f
9:54 2 3 mph 1013.6mb 73f 81f
9:48 2 3 mph 1013.7mb 73f 82f
9:42 2 3 mph 1013.7mb 73f 81f
9:36 1 2 mph 1013.7mb 73f 81f
9:30 2 3 mph 1013.7mb 73f 79f
9:24 1 3 mph 1013.7mb 73f 79f
9:18 2 3 mph 1013.8mb 73f 78f
9:12 1 5 mph 1013.9mb 73f 79f
9:06 3 5 mph 1013.9mb 73f 79f
9:00 2 3 mph 1013.9mb 73f 78f
8:54 2 3 mph 1013.9mb 73f 77f
8:48 2 3 mph 1013.9mb 72f 77f
8:42 2 3 mph 1014mb 72f 78f
8:36 3 5 mph 1014mb 72f 78f
8:30 3 5 mph 1013.9mb 72f 77f
8:24 2 5 mph 1013.9mb 72f 77f
8:18 2 3 mph 1013.9mb 73f 76f
8:12 1 3 mph 1014mb 73f 77f
8:06 3 5 mph 1013.9mb 73f 76f
8:00 3 5 mph 1013.8mb 73f 76f
7:54 2 3 mph 1013.7mb 73f 75f
7:48 2 5 mph 1013.7mb 73f 74f
7:42 3 5 mph 1013.7mb 73f 73f
7:36 3 5 mph 1013.8mb 73f 73f
7:30 2 5 mph 1013.9mb 73f 74f
7:24 3 5 mph 1013.9mb 73f 73f
7:18 3 5 mph 1013.9mb 73f 73f
7:12 2 3 mph 1013.8mb 73f 74f
7:06 2 3 mph 1013.7mb 73f 73f
7:00 2 5 mph 1013.8mb 73f 73f
6:54 3 5 mph 1013.7mb 73f 72f
6:48 5 6 mph 1013.6mb 73f 72f
6:42 3 5 mph 1013.6mb 73f 72f
6:36 3 5 mph 1013.6mb 73f 72f
6:30 2 5 mph 1013.5mb 73f 72f
6:24 3 5 mph 1013.5mb 73f 71f
6:18 3 5 mph 1013.6mb 73f 71f
6:12 2 5 mph 1013.5mb 72f 71f
6:06 3 6 mph 1013.5mb 73f 70f
6:00 3 5 mph 1013.5mb 73f 70f
5:54 2 6 mph 1013.4mb 73f 70f
5:48 5 6 mph 1013.3mb 72f 70f
5:42 3 6 mph 1013.3mb 72f 70f
5:36 2 5 mph 1013.2mb 72f 70f
5:30 2 5 mph 1013.1mb 72f 70f
5:24 1 2 mph 1013.1mb 72f 70f
5:18  -  2 mph 1013mb 72f 71f
5:12 1 2 mph 1013.1mb 72f 71f
5:06 1 3 mph 1013.1mb 71f 71f
5:00 2 3 mph 1013mb 71f 71f
4:54 2 3 mph 1013mb 71f 71f
4:48 2 5 mph 1012.9mb 71f 71f
4:42 2 3 mph 1012.9mb 71f 71f
4:36 2 5 mph 1012.8mb 71f 71f
4:30 2 5 mph 1012.8mb 71f 72f
4:24 2 5 mph 1012.8mb 71f 72f
4:18 2 5 mph 1012.7mb 71f 72f
4:12 3 6 mph 1012.7mb 71f 72f
4:06 2 6 mph 1012.7mb 71f 72f
4:00 2 5 mph 1012.6mb 71f 72f
3:54 2 6 mph 1012.6mb 71f 73f
3:48 3 6 mph 1012.6mb 71f 73f
3:42 3 6 mph 1012.6mb 71f 73f
3:36 3 5 mph 1012.7mb 71f 73f
3:30 3 5 mph 1012.7mb 72f 73f
3:24 2 3 mph 1012.7mb 72f 73f
3:18 2 5 mph 1012.8mb 72f 74f
3:12 3 6 mph 1012.7mb 72f 74f
3:06 3 6 mph 1012.7mb 72f 74f
3:00 3 6 mph 1012.7mb 72f 74f
2:54 5 6 mph 1012.7mb 72f 74f
2:48 3 5 mph 1012.7mb 72f 74f
2:42 2 6 mph 1012.7mb 72f 74f
2:36 2 5 mph 1012.7mb 72f 75f
2:30 2 5 mph 1012.7mb 72f 75f
2:24 3 6 mph 1012.6mb 72f 75f
2:18 3 5 mph 1012.6mb 72f 75f
2:12 2 6 mph 1012.6mb 72f 75f
2:06 5 7 mph 1012.6mb 71f 76f
2:00 3 6 mph 1012.7mb 71f 76f
1:54 3 6 mph 1012.6mb 71f 76f
1:48 2 6 mph 1012.6mb 71f 76f
1:42 3 6 mph 1012.5mb 72f 76f
1:36 3 6 mph 1012.5mb 72f 76f
1:30 5 6 mph 1012.5mb 72f 76f
1:24 5 7 mph 1012.5mb 73f 76f
1:18 5 7 mph 1012.5mb 73f 76f
1:12 2 5 mph 1012.5mb 73f 76f
1:06 3 6 mph 1012.5mb 73f 76f
1:00 5 7 mph 1012.5mb 72f 77f
12:54 5 7 mph 1012.4mb 72f 77f
12:48 6 8 mph 1012.4mb 72f 77f
12:42 3 5 mph 1012.4mb 71f 77f
12:36 2 6 mph 1012.5mb 71f 77f
12:30 5 7 mph 1012.5mb 71f 78f
12:24 3 6 mph 1012.5mb 71f 78f
12:18 2 6 mph 1012.5mb 71f 78f
12:12 2 6 mph 1012.5mb 71f 77f
12:06 3 6 mph 1012.5mb 72f 78f
12:00 3 6 mph 1012.6mb 72f 77f
Ter 07/26 11:54 3 5 mph 1012.5mb 73f 77f
11:48 2 5 mph 1012.5mb 74f 78f
11:42 2 6 mph 1012.5mb 75f 78f
11:36 2 5 mph 1012.5mb 75f 78f
11:30 5
mph
1012.5mb 75f 78f
11:24 2 3 mph 1012.5mb 75f 78f
11:18 2 5 mph 1012.4mb 75f -
11:12  -  2 mph 1012.3mb 75f -
11:06 1 3 mph 1012.3mb 75f -
11:00 2 5 mph - 75f -
10:54 2 5 mph - 75f -
10:48 2 3 mph 1012.2mb 75f -
10:42  -  2 mph 1012mb 75f -
10:36 2
mph
1012mb 75f -
10:30 1 3 mph - 75f 79f
10:24 1 2 mph - 75f 78f
10:18 2 3 mph 1012.1mb 75f 78f
10:12 2
mph
1012.1mb 75f 78f
10:06 2
mph
1012.2mb 75f 79f
10:00  -  mph - 74f 79f
9:54  -  mph - 75f 79f
9:48  -  2 mph - - -
9:42  -  1 mph - - -
9:36 1 3 mph - - -
9:30 2 3 mph - 76f -
9:24 1 2 mph - 76f -
9:18 1 5 mph - 76f 82f
9:12 2 5 mph - 76f 83f
9:06 2 3 mph - 76f 83f
9:00  -  mph - 76f 83f
8:54  -  mph - 76f 83f
8:48 3 5 mph 1010.9mb - -
8:42 3 5 mph 1010.8mb - -
8:36 2 3 mph 1010.6mb - -
8:30 3 6 mph - 76f 84f
8:24 2 5 mph - 76f 84f
8:18  -  mph - 76f 85f
8:12  -  mph - 76f 85f
8:06  -  mph - 76f 85f
8:00  -  mph - 76f -
7:54  -  mph - 75f -
7:48  -  mph - 76f -
7:42  -  mph - 76f -
7:36  -  mph - 75f -
7:30 2 6 mph - 76f 87f
7:24 2 7 mph - 75f 87f
7:18 5 7 mph 1010.1mb 75f -
7:12 5 7 mph 1010mb 75f -
7:06 5 7 mph 1010mb 76f -
7:00  -  mph 1010mb 75f -
6:54  -  mph 1010mb 76f -
6:48  -  mph 1010mb 76f -
6:42  -  mph 1009.9mb 75f -
6:36  -  mph 1009.9mb 76f -
6:30 6 8 mph 1009.8mb 75f 88f
6:24 7 9 mph 1009.8mb 76f 89f
6:18 5 8 mph 1009.7mb 76f -
6:12 7 11 mph 1009.7mb 76f -
6:06 9 11 mph 1009.7mb 76f -
6:00  -  mph - 76f 89f
5:54  -  mph - 76f 89f
5:48 7 13 mph - 76f -
5:42 9 14 mph - 76f -
5:36 6 11 mph - 76f -
5:30 6 15 mph 1009.7mb 75f 90f
5:24 6 10 mph 1009.7mb 75f 90f
5:18 5 15 mph 1009.6mb 75f 90f
5:12 8 13 mph 1009.5mb 75f 89f
5:06 8 13 mph 1009.5mb 75f 88f
5:00 8 13 mph 1009.5mb 75f 89f
4:54 5 11 mph 1009.5mb 75f 91f
4:48 6 13 mph 1009.5mb 74f 89f
4:42 10 14 mph 1009.5mb 74f 89f
4:36 10 15 mph 1009.5mb 74f 89f
4:30 10 16 mph 1009.4mb 73f 90f
4:24 7 11 mph 1009.4mb 73f 90f
4:18 6 10 mph 1009.4mb 72f 91f
4:12 7 15 mph 1009.4mb 72f 91f
4:06 11 17 mph 1009.5mb 72f 91f
4:00 8 18 mph 1009.5mb 73f 92f
3:54 5 11 mph 1009.4mb 73f 91f
3:48 10 15 mph 1009.5mb 72f 90f
3:42 6 11 mph 1009.5mb 72f 92f
3:36 8 18 mph 1009.5mb 73f 90f
3:30 11 17 mph 1009.6mb 73f 91f
3:24 8 15 mph 1009.6mb 73f 91f
3:18 6 11 mph 1009.6mb 72f 90f
3:12 7 14 mph 1009.6mb 72f 89f
3:06 2 10 mph 1009.6mb 71f 90f
3:00 5 9 mph 1009.6mb 72f 91f
2:54 3 14 mph 1009.6mb 71f 91f
2:48 9 17 mph 1009.6mb 71f 90f
2:42 8 20 mph 1009.6mb 72f 91f
2:36 10 20 mph 1009.6mb 71f 90f
2:30 7 18 mph 1009.6mb 71f 90f
2:24 8 15 mph 1009.6mb 73f 90f
2:18 9 14 mph 1009.6mb 73f 89f
2:12 2 14 mph 1009.6mb 71f 90f
2:06 8 17 mph 1009.8mb 73f 89f
2:00 14 18 mph 1009.9mb 74f 89f
1:54 10 17 mph 1009.9mb 73f 89f
1:48 8 14 mph 1009.9mb 73f 89f
1:42 7 13 mph 1009.9mb 73f 88f
1:36 7 20 mph 1010mb 73f 88f
1:30 8 16 mph 1010.1mb 74f 88f
1:24 6 14 mph 1010.1mb 74f 88f
1:18 13 17 mph 1010.2mb 74f 88f
1:12 8 15 mph 1010.2mb 74f 88f
1:06 10 16 mph 1010.1mb 74f 88f
1:00 6 15 mph 1010.2mb 73f 88f
12:54 11 16 mph 1010.3mb 71f 87f
12:48 7 13 mph 1010.3mb 71f 87f
12:42 8 10 mph 1010.4mb 71f 87f
12:36 5 20 mph 1010.5mb 71f 87f
12:30 9 18 mph 1010.6mb 70f 86f
12:24 7 15 mph 1010.6mb 70f 87f
12:18 7 17 mph 1010.7mb 73f 87f
12:12 6 17 mph 1010.7mb 73f 86f
12:06 6 15 mph 1010.7mb 72f 86f
12:00 7 15 mph 1010.7mb 73f 86f
11:54 5 13 mph 1010.8mb 73f 86f
11:48 3 11 mph 1010.8mb 73f 86f
11:42 8 16 mph 1010.8mb 72f 86f
11:36 6 11 mph 1010.8mb 70f 85f
11:30 8 16 mph 1010.8mb 69f 86f
11:24 11 20 mph 1010.9mb 69f 85f
11:18 8 17 mph 1010.9mb 69f 85f
11:12 11 18 mph 1010.9mb 69f 85f
11:06 9 15 mph 1010.9mb 71f 85f
11:00 10 16 mph 1010.9mb 70f 84f
10:54 11 16 mph 1011mb 71f 84f
10:48 6 10 mph 1011mb 71f 83f
10:42 9 14 mph 1011.1mb 72f 83f
10:36 7 14 mph 1011.1mb 73f 84f
10:30 6 11 mph 1011.1mb 71f 83f
10:24 5 14 mph 1011.2mb 71f 83f
10:18 7 11 mph 1011.2mb 72f 83f
10:12 7 13 mph 1011.2mb 73f 82f
10:06 6 9 mph 1011.2mb 74f 83f
10:00 6 10 mph 1011.2mb 74f 82f
9:54 5 9 mph 1011.2mb 74f 81f
9:48 7 10 mph 1011.2mb 74f 82f
9:42 3 10 mph 1011.3mb 74f 82f
9:36 5 9 mph 1011.3mb 74f 82f
9:30 7 10 mph 1011.3mb 73f 81f
9:24 3 11 mph 1011.3mb 73f 82f
9:18 9 11 mph 1011.4mb 73f 81f
9:12 7 10 mph 1011.4mb 73f 81f
9:06 5 9 mph 1011.4mb 73f 81f
9:00  -  6 mph 1011.4mb 73f 81f
8:54 3 6 mph 1011.4mb 73f 80f
8:48 2 6 mph 1011.3mb 74f 79f
8:42 3 6 mph 1011.3mb 73f 78f
8:36 2 5 mph 1011.3mb 73f 78f
8:30 2 5 mph 1011.3mb 73f 77f
8:24 2 3 mph 1011.3mb 73f 77f
8:18  -  3 mph 1011.3mb 73f 77f
8:12 2 5 mph 1011.3mb 73f 76f
8:06 3 5 mph 1011.3mb 73f 76f
8:00 3
mph
1011.3mb 73f 76f
7:54  -  2 mph 1011.3mb 72f 77f
7:48 3 6 mph 1011.2mb 71f 76f
7:42 5 6 mph 1011.2mb 71f 75f
7:36 3 6 mph 1011.2mb 71f 76f
7:30 1 2 mph 1011.2mb 71f 76f
7:24  -  3 mph 1011.2mb 72f 76f
7:18 2 3 mph 1011.1mb 72f 76f
7:12  -  2 mph 1011.1mb 73f 76f
7:06 1 2 mph 1011mb 73f 75f
7:00 1 2 mph 1011.1mb 73f 75f
6:54 1 2 mph 1011.1mb 74f 75f
6:48 2
mph
1011mb 73f 74f
6:42  -  2 mph 1011mb 74f 74f
6:36 1 2 mph 1010.9mb 74f 74f
6:30  -  2 mph 1010.9mb 74f 73f
6:24  -  2 mph 1010.9mb 74f 73f
6:18  -  2 mph 1010.8mb 74f 73f
6:12  -  2 mph 1010.8mb 73f 72f
6:06  -  1 mph 1010.7mb 73f 71f
6:00 1 2 mph 1010.7mb 74f 70f
5:54  -  1 mph 1010.7mb 74f 70f
5:48  -  2 mph 1010.7mb 74f 70f
5:42  -  2 mph 1010.6mb 74f 70f
5:36  -  1 mph 1010.4mb 74f 70f
5:30 1 2 mph 1010.4mb 73f 70f